Time;durP1;ratioP1;P1;durP2;ratioP2;P2;SDS_P1;SDS_P2;PMS_P1;PMS_P2;Temp;Humidity;BMP_temperature;BMP_pressure;BME280_temperature;BME280_humidity;BME280_pressure;Samples;Min_cycle;Max_cycle;Signal;HPM_P1;HPM_P2
2022/03/28 00:01:14;;;;;;;14.60;8.60;;;;;;;1.59;100.00;101793.03;5002383;28;20283;-70
2022/03/28 00:03:40;;;;;;;11.20;7.60;;;;;;;1.57;100.00;101788.69;5006481;28;20222;-70
2022/03/28 00:06:09;;;;;;;11.83;7.50;;;;;;;1.61;100.00;101795.63;5008511;28;20210;-70
2022/03/28 00:08:37;;;;;;;11.93;7.70;;;;;;;1.49;100.00;101799.56;5002095;28;20323;-70
2022/03/28 00:11:06;;;;;;;16.17;8.47;;;;;;;1.39;100.00;101794.13;5005674;28;20204;-70
2022/03/28 00:13:33;;;;;;;11.57;8.17;;;;;;;1.35;100.00;101792.28;5003830;28;21109;-70
2022/03/28 00:15:59;;;;;;;10.77;7.17;;;;;;;1.36;100.00;101789.78;5009041;28;20201;-70
2022/03/28 00:18:26;;;;;;;10.80;7.20;;;;;;;1.35;100.00;101787.16;5005443;28;20234;-70
2022/03/28 00:20:54;;;;;;;13.47;7.70;;;;;;;1.40;100.00;101785.59;5010090;28;20203;-70
2022/03/28 00:23:20;;;;;;;12.17;7.23;;;;;;;1.48;100.00;101782.44;5008832;28;20213;-70
2022/03/28 00:25:48;;;;;;;12.60;7.13;;;;;;;1.41;100.00;101775.38;5006149;28;20214;-70
2022/03/28 00:28:16;;;;;;;9.23;6.63;;;;;;;1.45;100.00;101781.47;5003027;28;20551;-70
2022/03/28 00:30:42;;;;;;;9.90;7.10;;;;;;;1.47;100.00;101775.53;4991025;28;20193;-70
2022/03/28 00:33:10;;;;;;;11.20;6.80;;;;;;;1.51;100.00;101771.34;4987688;28;20200;-70
2022/03/28 00:35:37;;;;;;;11.73;6.83;;;;;;;1.45;100.00;101772.03;5005717;28;20625;-71
2022/03/28 00:38:04;;;;;;;11.60;6.37;;;;;;;1.48;100.00;101774.72;5007667;28;20218;-70
2022/03/28 00:40:32;;;;;;;10.57;6.70;;;;;;;1.44;100.00;101777.13;5010425;28;20232;-70
2022/03/28 00:43:01;;;;;;;11.03;7.37;;;;;;;1.70;100.00;101768.47;5012122;28;20208;-70
2022/03/28 00:45:28;;;;;;;12.10;7.67;;;;;;;1.48;100.00;101758.44;5009928;28;20205;-71
2022/03/28 00:47:54;;;;;;;11.30;7.03;;;;;;;1.38;100.00;101754.69;5008686;28;20228;-70
2022/03/28 00:50:20;;;;;;;12.20;7.03;;;;;;;1.35;100.00;101754.59;5010820;28;20209;-70
2022/03/28 00:52:47;;;;;;;10.63;6.83;;;;;;;1.26;100.00;101750.06;5015428;28;20200;-70
2022/03/28 00:55:13;;;;;;;12.73;6.70;;;;;;;1.27;100.00;101748.38;5009560;28;20214;-70
2022/03/28 00:57:41;;;;;;;12.10;7.17;;;;;;;1.35;100.00;101748.59;5011343;28;20597;-71
2022/03/28 01:00:10;;;;;;;9.50;6.57;;;;;;;1.27;100.00;101735.53;5006792;28;20208;-70
2022/03/28 01:02:37;;;;;;;9.43;6.57;;;;;;;1.23;100.00;101737.16;5007222;28;20199;-69
2022/03/28 01:05:03;;;;;;;12.63;7.40;;;;;;;1.48;100.00;101731.03;5013405;28;20284;-71
2022/03/28 01:07:30;;;;;;;9.67;6.33;;;;;;;1.42;100.00;101733.41;5012314;28;20226;-71
2022/03/28 01:09:59;;;;;;;10.60;6.37;;;;;;;1.39;100.00;101729.88;5008020;28;20208;-70
2022/03/28 01:12:26;;;;;;;9.00;6.60;;;;;;;1.48;100.00;101730.16;5010258;28;20202;-70
2022/03/28 01:14:54;;;;;;;9.87;5.93;;;;;;;1.38;100.00;101723.00;5012168;28;20207;-71
2022/03/28 01:20:07;;;;;;;10.97;6.47;;;;;;;1.35;100.00;101715.19;5010150;28;20564;-69
2022/03/28 01:22:35;;;;;;;12.10;6.80;;;;;;;1.37;100.00;101703.25;5011209;28;20206;-70
2022/03/28 01:25:03;;;;;;;10.10;6.37;;;;;;;1.37;100.00;101705.81;5010457;28;20206;-70
2022/03/28 01:27:29;;;;;;;12.03;6.53;;;;;;;1.33;100.00;101705.72;5005864;28;20225;-70
2022/03/28 01:29:56;;;;;;;10.50;6.27;;;;;;;1.41;100.00;101705.09;5007630;28;20679;-70
2022/03/28 01:32:22;;;;;;;12.40;6.70;;;;;;;1.37;100.00;101698.13;5009402;28;20204;-70
2022/03/28 01:34:48;;;;;;;10.57;6.87;;;;;;;1.43;100.00;101694.03;5008139;28;20205;-70
2022/03/28 01:37:15;;;;;;;10.00;6.73;;;;;;;1.41;100.00;101695.69;5010774;28;20225;-71
2022/03/28 01:39:43;;;;;;;9.70;6.63;;;;;;;1.47;100.00;101694.97;5009636;28;20201;-70
2022/03/28 01:42:09;;;;;;;10.27;6.47;;;;;;;1.51;100.00;101687.41;5007347;28;20545;-70
2022/03/28 01:44:36;;;;;;;10.43;6.63;;;;;;;1.44;100.00;101690.66;5009473;28;20243;-70
2022/03/28 01:47:02;;;;;;;10.03;6.57;;;;;;;1.33;100.00;101686.88;5011581;28;20224;-70
2022/03/28 01:49:28;;;;;;;9.53;6.40;;;;;;;1.41;100.00;101685.41;5008386;28;20212;-70
2022/03/28 01:51:55;;;;;;;9.83;6.07;;;;;;;1.41;100.00;101680.28;5007591;28;20673;-70
2022/03/28 01:54:21;;;;;;;11.50;6.90;;;;;;;1.35;100.00;101684.34;5007574;28;20661;-70
2022/03/28 01:56:49;;;;;;;9.67;6.57;;;;;;;1.46;100.00;101685.53;5007823;28;20202;-70
2022/03/28 01:59:16;;;;;;;10.47;6.53;;;;;;;1.49;100.00;101683.91;5006128;28;20201;-70
2022/03/28 02:01:42;;;;;;;9.60;6.23;;;;;;;1.49;100.00;101676.19;5000383;28;20206;-70
2022/03/28 02:04:09;;;;;;;9.67;6.33;;;;;;;1.58;100.00;101677.28;5009113;28;20218;-70
2022/03/28 02:06:35;;;;;;;9.87;6.63;;;;;;;1.52;100.00;101678.84;5004045;28;20205;-70
2022/03/28 02:09:03;;;;;;;10.50;6.47;;;;;;;1.60;100.00;101673.06;5003423;28;20236;-70
2022/03/28 02:11:30;;;;;;;12.63;6.10;;;;;;;1.53;100.00;101672.03;5007580;28;20219;-70
2022/03/28 02:13:57;;;;;;;7.53;6.03;;;;;;;1.45;100.00;101670.94;5010271;28;20202;-71
2022/03/28 02:16:24;;;;;;;9.50;6.03;;;;;;;1.29;100.00;101662.78;5010065;28;20201;-71
2022/03/28 02:18:50;;;;;;;9.03;6.03;;;;;;;1.37;100.00;101667.28;5011327;28;20221;-71
2022/03/28 02:21:17;;;;;;;10.00;6.77;;;;;;;1.24;100.00;101666.94;5019416;28;20201;-71
2022/03/28 02:23:43;;;;;;;9.33;6.07;;;;;;;1.25;100.00;101668.69;5006805;28;20205;-70
2022/03/28 02:26:10;;;;;;;9.20;6.57;;;;;;;1.15;100.00;101665.81;5006973;28;20204;-69
2022/03/28 02:28:36;;;;;;;10.50;6.80;;;;;;;1.27;100.00;101661.88;5007286;28;20231;-70
2022/03/28 02:31:04;;;;;;;9.33;6.07;;;;;;;1.24;100.00;101660.94;5004222;28;20210;-70
2022/03/28 02:33:30;;;;;;;12.80;7.33;;;;;;;1.34;100.00;101657.81;5007948;28;20287;-70
2022/03/28 02:35:57;;;;;;;10.87;6.73;;;;;;;1.28;100.00;101653.34;5001819;28;20678;-71
2022/03/28 02:38:23;;;;;;;11.37;6.97;;;;;;;1.31;100.00;101648.28;5009063;28;20226;-70
2022/03/28 02:40:50;;;;;;;9.07;6.73;;;;;;;1.40;100.00;101652.81;5003878;28;20229;-70
2022/03/28 02:43:16;;;;;;;11.67;7.23;;;;;;;1.52;100.00;101645.44;5010375;28;20210;-69
2022/03/28 02:45:43;;;;;;;11.97;7.10;;;;;;;1.56;100.00;101640.38;5007644;28;20205;-70
2022/03/28 02:48:11;;;;;;;11.90;7.30;;;;;;;1.57;100.00;101640.44;5008718;28;20228;-70
2022/03/28 02:50:37;;;;;;;12.03;7.47;;;;;;;1.55;100.00;101634.38;5005125;28;20205;-71
2022/03/28 02:53:03;;;;;;;14.57;7.50;;;;;;;1.43;100.00;101628.91;5007932;28;20208;-70
2022/03/28 02:55:30;;;;;;;10.57;6.47;;;;;;;1.30;100.00;101637.97;5004660;28;20732;-70
2022/03/28 02:57:56;;;;;;;11.87;6.50;;;;;;;1.26;100.00;101641.28;5001938;28;20224;-71
2022/03/28 03:00:23;;;;;;;9.97;6.70;;;;;;;1.14;100.00;101641.78;5007277;28;20196;-70
2022/03/28 03:02:49;;;;;;;11.47;7.40;;;;;;;1.13;100.00;101632.38;5012298;28;20204;-70
2022/03/28 03:05:17;;;;;;;10.43;6.93;;;;;;;1.28;100.00;101634.47;5009015;28;20225;-70
2022/03/28 03:07:43;;;;;;;11.53;7.43;;;;;;;1.29;100.00;101634.53;5011820;28;20217;-70
2022/03/28 03:10:11;;;;;;;10.67;7.47;;;;;;;1.37;100.00;101633.88;5006353;28;20212;-70
2022/03/28 03:12:37;;;;;;;9.60;6.90;;;;;;;1.37;100.00;101632.16;5002381;28;20201;-71
2022/03/28 03:15:04;;;;;;;11.03;7.13;;;;;;;1.31;100.00;101635.44;5009409;28;20213;-71
2022/03/28 03:17:31;;;;;;;12.10;7.30;;;;;;;1.32;100.00;101638.91;5006793;28;20229;-70
2022/03/28 03:19:58;;;;;;;13.30;8.13;;;;;;;1.34;100.00;101637.25;5005266;28;20212;-70
2022/03/28 03:22:25;;;;;;;11.43;7.07;;;;;;;1.39;100.00;101632.22;5004702;28;20202;-70
2022/03/28 03:24:52;;;;;;;13.60;7.30;;;;;;;1.45;100.00;101622.97;5008992;28;20226;-71
2022/03/28 03:27:18;;;;;;;15.13;8.80;;;;;;;1.49;100.00;101621.34;5008630;28;20232;-71
2022/03/28 03:29:44;;;;;;;12.70;7.83;;;;;;;1.38;100.00;101621.06;5007986;28;20271;-70
2022/03/28 03:32:11;;;;;;;14.33;8.23;;;;;;;1.41;100.00;101620.28;5009383;28;20829;-71
2022/03/28 03:34:37;;;;;;;14.33;8.07;;;;;;;1.37;100.00;101610.75;5007718;28;20193;-70
2022/03/28 03:37:04;;;;;;;15.77;8.00;;;;;;;1.43;100.00;101616.94;5004879;28;20227;-71
2022/03/28 03:39:32;;;;;;;12.93;7.67;;;;;;;1.41;100.00;101610.03;5004801;28;20689;-70
2022/03/28 03:41:59;;;;;;;17.63;9.73;;;;;;;1.38;100.00;101609.94;5009685;28;20208;-70
2022/03/28 03:44:25;;;;;;;13.80;8.50;;;;;;;1.43;100.00;101611.78;5006274;28;20215;-71
2022/03/28 03:46:52;;;;;;;18.53;10.03;;;;;;;1.47;100.00;101603.31;5005301;28;20206;-71
2022/03/28 03:49:18;;;;;;;16.10;9.93;;;;;;;1.42;100.00;101604.03;5008706;28;20207;-70
2022/03/28 03:51:45;;;;;;;19.67;10.30;;;;;;;1.41;100.00;101604.88;5007904;28;20216;-70
2022/03/28 03:54:12;;;;;;;16.23;10.70;;;;;;;1.46;100.00;101608.41;5001612;28;20196;-70
2022/03/28 03:56:39;;;;;;;17.53;10.10;;;;;;;1.41;100.00;101602.31;5008687;28;20593;-71
2022/03/28 03:59:06;;;;;;;16.63;10.13;;;;;;;1.48;100.00;101615.34;5005782;28;20585;-71
2022/03/28 04:01:32;;;;;;;15.80;10.47;;;;;;;1.45;100.00;101604.97;5009956;28;20211;-70
2022/03/28 04:03:59;;;;;;;19.27;10.80;;;;;;;1.44;100.00;101603.25;5003618;28;20220;-70
2022/03/28 04:06:25;;;;;;;20.83;11.33;;;;;;;1.40;100.00;101601.41;5006312;28;20200;-69
2022/03/28 04:08:52;;;;;;;23.47;11.03;;;;;;;1.41;100.00;101602.31;5001340;28;20725;-70
2022/03/28 04:11:18;;;;;;;19.20;11.10;;;;;;;1.44;100.00;101595.56;5010863;28;20313;-70
2022/03/28 04:13:46;;;;;;;21.53;11.43;;;;;;;1.39;100.00;101593.66;5010849;28;20205;-70
2022/03/28 04:16:12;;;;;;;20.33;13.23;;;;;;;1.43;100.00;101595.50;5010996;28;20196;-70
2022/03/28 04:18:39;;;;;;;24.47;12.13;;;;;;;1.43;100.00;101586.09;5009341;28;20229;-70
2022/03/28 04:21:05;;;;;;;19.93;12.00;;;;;;;1.41;100.00;101589.47;5010186;28;20201;-70
2022/03/28 04:23:31;;;;;;;21.30;12.73;;;;;;;1.44;100.00;101592.97;5006151;28;20212;-70
2022/03/28 04:25:58;;;;;;;21.03;13.00;;;;;;;1.43;100.00;101582.66;5008022;28;20202;-70
2022/03/28 04:28:24;;;;;;;23.13;13.30;;;;;;;1.41;100.00;101585.19;5009365;28;20221;-70
2022/03/28 04:30:52;;;;;;;25.13;13.57;;;;;;;1.40;100.00;101586.00;5008856;28;20208;-70
2022/03/28 04:33:19;;;;;;;22.40;12.90;;;;;;;1.40;100.00;101580.84;5012369;28;20201;-70
2022/03/28 04:35:46;;;;;;;24.03;13.57;;;;;;;1.43;100.00;101582.66;5007587;28;20824;-70
2022/03/28 04:38:12;;;;;;;24.43;14.00;;;;;;;1.45;100.00;101581.00;5008453;28;20217;-71
2022/03/28 04:40:39;;;;;;;22.33;12.43;;;;;;;1.51;100.00;101588.84;5007850;28;20240;-70
2022/03/28 04:43:06;;;;;;;28.23;14.43;;;;;;;1.49;100.00;101582.81;5008350;28;20869;-70
2022/03/28 04:45:33;;;;;;;22.20;14.03;;;;;;;1.48;100.00;101581.94;5010447;28;20220;-70
2022/03/28 04:48:01;;;;;;;24.00;13.83;;;;;;;1.47;100.00;101584.47;5009732;28;20255;-70
2022/03/28 04:50:28;;;;;;;23.30;13.13;;;;;;;1.53;100.00;101576.94;5008760;28;20210;-70
2022/03/28 04:52:55;;;;;;;25.97;14.43;;;;;;;1.51;100.00;101576.88;5009512;28;20739;-70
2022/03/28 04:55:21;;;;;;;24.57;13.97;;;;;;;1.58;100.00;101570.19;5009761;28;20193;-69
2022/03/28 04:57:47;;;;;;;25.57;13.80;;;;;;;1.50;100.00;101579.41;5007871;28;20229;-70
2022/03/28 05:00:16;;;;;;;25.60;13.97;;;;;;;1.53;100.00;101574.38;5007860;28;20210;-70
2022/03/28 05:02:42;;;;;;;21.33;13.63;;;;;;;1.51;100.00;101573.44;5004716;28;20730;-69
2022/03/28 05:05:11;;;;;;;24.63;14.60;;;;;;;1.52;100.00;101575.19;5007667;28;20224;-71
2022/03/28 05:07:38;;;;;;;25.97;15.17;;;;;;;1.56;100.00;101578.69;5001199;28;20210;-69
2022/03/28 05:10:06;;;;;;;26.67;15.20;;;;;;;1.55;100.00;101576.94;4989435;28;20267;-70
2022/03/28 05:12:34;;;;;;;23.50;14.50;;;;;;;1.56;100.00;101579.56;5003561;28;20257;-70
2022/03/28 05:15:02;;;;;;;26.50;15.70;;;;;;;1.59;100.00;101584.78;5005708;28;20540;-71
2022/03/28 05:17:30;;;;;;;33.63;16.63;;;;;;;1.65;100.00;101579.81;5014516;23;20235;-71
2022/03/28 05:19:58;;;;;;;32.83;16.90;;;;;;;1.66;100.00;101576.41;4988212;28;20197;-71
2022/03/28 05:22:26;;;;;;;29.90;16.10;;;;;;;1.74;100.00;101578.28;4992250;28;20562;-71
2022/03/28 05:24:54;;;;;;;33.10;17.30;;;;;;;1.77;100.00;101574.09;4990374;28;20229;-71
2022/03/28 05:27:21;;;;;;;29.07;16.90;;;;;;;1.74;100.00;101573.16;4984832;28;20207;-71
2022/03/28 05:29:48;;;;;;;29.83;17.53;;;;;;;1.77;100.00;101566.38;4969440;28;20207;-71
2022/03/28 05:32:15;;;;;;;29.83;15.83;;;;;;;1.85;100.00;101564.88;4969082;28;20204;-71
2022/03/28 05:34:41;;;;;;;31.40;16.57;;;;;;;1.89;100.00;101560.69;4971623;28;20200;-71
2022/03/28 05:37:11;;;;;;;31.70;17.57;;;;;;;1.91;100.00;101560.72;4973795;28;20215;-71
2022/03/28 05:39:40;;;;;;;32.87;17.57;;;;;;;1.95;100.00;101563.38;4969679;28;20239;-71
2022/03/28 05:42:07;;;;;;;32.43;18.63;;;;;;;1.94;100.00;101555.66;4971077;28;20212;-71
2022/03/28 05:44:34;;;;;;;32.50;18.40;;;;;;;2.02;100.00;101554.13;4972358;28;20221;-71
2022/03/28 05:47:00;;;;;;;35.13;19.33;;;;;;;2.08;100.00;101554.28;4970580;28;20693;-71
2022/03/28 05:49:27;;;;;;;38.93;19.53;;;;;;;2.18;100.00;101555.34;4969148;28;20222;-71
2022/03/28 05:51:54;;;;;;;40.07;20.03;;;;;;;2.25;100.00;101557.22;4969784;28;20314;-71
2022/03/28 05:54:21;;;;;;;44.03;20.70;;;;;;;2.27;100.00;101551.28;4960810;28;20205;-71
2022/03/28 05:56:49;;;;;;;43.90;21.40;;;;;;;2.34;100.00;101547.16;4963343;28;20202;-71
2022/03/28 05:59:16;;;;;;;40.77;20.67;;;;;;;2.43;100.00;101547.34;4966021;28;20233;-71
2022/03/28 06:01:43;;;;;;;50.63;23.20;;;;;;;2.52;100.00;101538.09;4959519;28;20206;-71
2022/03/28 06:04:09;;;;;;;50.87;23.13;;;;;;;2.64;100.00;101535.78;4961126;28;20220;-71
2022/03/28 06:06:36;;;;;;;44.87;23.50;;;;;;;2.73;100.00;101530.81;4964824;28;20214;-71
2022/03/28 06:09:04;;;;;;;48.90;23.83;;;;;;;2.79;100.00;101530.94;4971049;28;20221;-71
2022/03/28 06:11:30;;;;;;;47.53;23.47;;;;;;;2.92;100.00;101532.06;4965262;28;20568;-71
2022/03/28 06:13:58;;;;;;;51.73;25.20;;;;;;;3.06;100.00;101523.72;4963479;28;20201;-71
2022/03/28 06:16:25;;;;;;;47.53;24.17;;;;;;;3.19;100.00;101526.56;4963637;28;20779;-71
2022/03/28 06:18:52;;;;;;;54.77;26.60;;;;;;;3.36;100.00;101520.84;4966826;28;20240;-71
2022/03/28 06:21:19;;;;;;;53.57;27.47;;;;;;;3.50;100.00;101521.06;4970049;28;20217;-71
2022/03/28 06:23:45;;;;;;;54.93;27.10;;;;;;;3.60;100.00;101520.41;4965160;28;20205;-71
2022/03/28 06:26:12;;;;;;;51.77;25.47;;;;;;;3.70;100.00;101527.44;4970816;28;20221;-71
2022/03/28 06:28:40;;;;;;;54.57;27.87;;;;;;;3.84;100.00;101524.25;4966130;28;20798;-71
2022/03/28 06:31:08;;;;;;;58.10;28.17;;;;;;;3.97;100.00;101521.00;4972380;28;20550;-71
2022/03/28 06:33:35;;;;;;;51.30;27.77;;;;;;;4.13;100.00;101517.81;4964360;28;20268;-71
2022/03/28 06:36:02;;;;;;;52.50;27.07;;;;;;;4.29;100.00;101513.75;4961669;28;20210;-71
2022/03/28 06:38:28;;;;;;;53.47;28.20;;;;;;;4.46;100.00;101510.50;4961947;28;20241;-71
2022/03/28 06:40:55;;;;;;;58.53;30.17;;;;;;;4.66;100.00;101506.47;4968941;28;20570;-71
2022/03/28 06:43:22;;;;;;;56.63;29.60;;;;;;;4.88;100.00;101517.06;4963629;28;20202;-71
2022/03/28 06:45:50;;;;;;;58.00;31.13;;;;;;;5.01;100.00;101503.41;4967152;28;20209;-71
2022/03/28 06:48:18;;;;;;;60.17;30.13;;;;;;;5.15;100.00;101498.38;4981365;28;20232;-71
2022/03/28 06:50:44;;;;;;;53.53;28.57;;;;;;;5.30;100.00;101508.03;4964205;28;20198;-71
2022/03/28 06:53:15;;;;;;;50.70;27.47;;;;;;;5.44;100.00;101500.41;4965889;28;20209;-71
2022/03/28 06:55:41;;;;;;;47.73;27.73;;;;;;;5.63;100.00;101504.88;4965511;28;20213;-71
2022/03/28 06:58:07;;;;;;;46.20;26.90;;;;;;;5.79;100.00;101497.25;4963125;28;20237;-71
2022/03/28 07:00:35;;;;;;;41.83;25.60;;;;;;;5.86;100.00;101494.69;4962622;28;20208;-71
2022/03/28 07:03:02;;;;;;;41.60;25.87;;;;;;;5.95;100.00;101499.06;4965159;28;20226;-71
2022/03/28 07:05:30;;;;;;;41.27;23.90;;;;;;;6.10;100.00;101493.16;4962992;28;20556;-71
2022/03/28 07:07:56;;;;;;;42.10;25.73;;;;;;;6.23;100.00;101492.38;4965086;28;20244;-71
2022/03/28 07:10:23;;;;;;;37.83;23.90;;;;;;;6.33;100.00;101485.53;4965427;28;20700;-71
2022/03/28 07:12:51;;;;;;;37.77;22.20;;;;;;;6.47;100.00;101484.72;4968186;28;20236;-71
2022/03/28 07:15:17;;;;;;;39.50;22.80;;;;;;;6.60;100.00;101487.38;4961001;28;20714;-71
2022/03/28 07:17:51;;;;;;;35.97;22.30;;;;;;;6.68;100.00;101484.78;4964998;28;20225;-71
2022/03/28 07:20:18;;;;;;;37.73;23.97;;;;;;;6.86;100.00;101488.31;4963455;28;20206;-71
2022/03/28 07:22:46;;;;;;;35.17;22.10;;;;;;;7.00;100.00;101484.03;4969194;28;20623;-71
2022/03/28 07:25:13;;;;;;;35.53;22.30;;;;;;;7.07;100.00;101484.91;4968446;28;20221;-71
2022/03/28 07:27:40;;;;;;;31.67;20.70;;;;;;;7.18;100.00;101483.22;4966192;28;20233;-71
2022/03/28 07:30:11;;;;;;;34.10;21.30;;;;;;;7.35;100.00;101480.63;4966103;28;20214;-71
2022/03/28 07:32:38;;;;;;;34.50;21.47;;;;;;;7.45;100.00;101481.50;4966597;28;20676;-71
2022/03/28 07:35:06;;;;;;;32.10;21.80;;;;;;;7.57;100.00;101484.09;4966246;28;20214;-71
2022/03/28 07:37:34;;;;;;;33.30;20.00;;;;;;;7.73;100.00;101479.78;4962755;28;20707;-71
2022/03/28 07:40:02;;;;;;;34.47;21.37;;;;;;;7.84;100.00;101484.94;4964596;28;20901;-71
2022/03/28 07:42:30;;;;;;;30.87;20.30;;;;;;;7.96;100.00;101483.19;4962077;28;20194;-71
2022/03/28 07:44:57;;;;;;;29.57;19.67;;;;;;;8.06;100.00;101476.25;4965411;28;20718;-71
2022/03/28 07:47:25;;;;;;;31.13;19.70;;;;;;;8.25;100.00;101478.81;4967550;28;20264;-71
2022/03/28 07:49:52;;;;;;;28.20;18.03;;;;;;;8.31;100.00;101482.25;4974602;28;20675;-71
2022/03/28 07:52:18;;;;;;;31.23;18.73;;;;;;;8.39;100.00;101473.56;4969022;28;20202;-71
2022/03/28 07:54:45;;;;;;;32.23;18.87;;;;;;;8.49;100.00;101468.34;4970063;28;20206;-71
2022/03/28 07:57:14;;;;;;;27.57;18.53;;;;;;;8.60;100.00;101470.03;4966294;28;20213;-71
2022/03/28 07:59:40;;;;;;;28.77;18.83;;;;;;;8.65;100.00;101468.28;4965394;28;20290;-71
2022/03/28 08:02:08;;;;;;;27.37;18.73;;;;;;;8.69;100.00;101467.44;4964911;28;20218;-71
2022/03/28 08:04:34;;;;;;;26.43;18.50;;;;;;;8.77;100.00;101473.44;4969136;28;20225;-71
2022/03/28 08:07:03;;;;;;;26.80;18.67;;;;;;;8.92;100.00;101464.69;4965801;28;20213;-71
2022/03/28 08:09:29;;;;;;;30.90;20.50;;;;;;;8.99;100.00;101457.69;4971419;28;20218;-71
2022/03/28 08:11:56;;;;;;;30.83;20.60;;;;;;;9.04;100.00;101456.81;4966131;28;20202;-71
2022/03/28 08:14:24;;;;;;;29.63;20.13;;;;;;;9.11;100.00;101460.22;4970591;28;20846;-71
2022/03/28 08:16:50;;;;;;;25.83;18.07;;;;;;;9.23;100.00;101444.56;4970770;28;20210;-71
2022/03/28 08:19:17;;;;;;;28.80;18.87;;;;;;;9.37;99.22;101451.38;4967190;28;20233;-71
2022/03/28 08:21:44;;;;;;;27.77;18.97;;;;;;;9.57;98.40;101453.78;4969964;28;20208;-72
2022/03/28 08:24:10;;;;;;;27.60;18.70;;;;;;;9.69;97.32;101448.47;4969960;28;20376;-71
2022/03/28 08:26:37;;;;;;;27.47;18.20;;;;;;;9.76;96.86;101450.19;4968924;28;20224;-71
2022/03/28 08:29:04;;;;;;;25.90;17.07;;;;;;;9.81;96.92;101440.53;4966089;28;20310;-71
2022/03/28 08:31:31;;;;;;;28.33;17.93;;;;;;;9.88;94.84;101451.78;4968586;28;20204;-71
2022/03/28 08:33:58;;;;;;;27.10;17.67;;;;;;;9.98;95.62;101439.53;4967505;28;20200;-71
2022/03/28 08:36:24;;;;;;;28.13;17.77;;;;;;;10.03;94.71;101438.59;4969107;28;20207;-71
2022/03/28 08:38:51;;;;;;;30.47;18.30;;;;;;;10.18;95.51;101434.97;4965358;28;20311;-71
2022/03/28 08:41:19;;;;;;;26.90;18.37;;;;;;;10.24;94.53;101436.63;4971757;28;20207;-71
2022/03/28 08:43:46;;;;;;;29.77;19.40;;;;;;;10.38;94.26;101437.34;4969844;28;20233;-71
2022/03/28 08:46:17;;;;;;;24.57;17.27;;;;;;;10.55;93.39;101431.06;4969420;28;20760;-71
2022/03/28 08:48:45;;;;;;;27.50;18.27;;;;;;;10.64;92.91;101430.06;4967129;28;20229;-72
2022/03/28 08:51:16;;;;;;;27.13;17.63;;;;;;;10.76;91.92;101420.34;4970236;28;20217;-71
2022/03/28 08:53:44;;;;;;;26.60;17.93;;;;;;;10.88;91.58;101416.69;4968588;28;20213;-71
2022/03/28 08:56:10;;;;;;;27.73;17.70;;;;;;;11.03;91.49;101413.00;4969561;28;20213;-71
2022/03/28 08:58:37;;;;;;;29.27;17.77;;;;;;;11.06;88.98;101412.06;4963579;28;20219;-71
2022/03/28 09:01:04;;;;;;;30.17;18.13;;;;;;;11.14;91.18;101408.47;4972337;28;20205;-71
2022/03/28 09:03:38;;;;;;;27.20;17.33;;;;;;;11.24;88.61;101398.75;4970152;28;20214;-71
2022/03/28 09:06:33;;;;;;;26.50;16.63;;;;;;;11.36;88.87;101400.25;4968345;28;20221;-71
2022/03/28 09:09:13;;;;;;;25.60;17.03;;;;;;;11.47;87.31;101402.72;4964427;28;20310;-71
2022/03/28 09:11:42;;;;;;;26.03;17.23;;;;;;;11.57;86.10;101399.03;4965119;28;20201;-71
2022/03/28 09:14:11;;;;;;;25.23;16.53;;;;;;;11.69;85.18;101400.56;4970049;28;20198;-71
2022/03/28 09:16:38;;;;;;;25.53;16.47;;;;;;;11.76;86.38;101391.72;4965291;28;20211;-72
2022/03/28 09:19:10;;;;;;;27.93;15.63;;;;;;;11.85;85.42;101395.91;4963359;28;20777;-71
2022/03/28 09:21:38;;;;;;;22.40;15.30;;;;;;;11.93;83.36;101388.81;4964189;28;20210;-71
2022/03/28 09:24:10;;;;;;;23.83;15.30;;;;;;;12.07;83.00;101384.19;4975658;28;20207;-71
2022/03/28 09:26:37;;;;;;;23.40;15.53;;;;;;;12.24;83.19;101390.81;4966143;28;20210;-71
2022/03/28 09:29:05;;;;;;;27.17;16.03;;;;;;;12.37;81.50;101381.81;4969514;28;20230;-72
2022/03/28 09:31:34;;;;;;;23.87;14.83;;;;;;;12.36;82.68;101380.09;4963998;28;20203;-72
2022/03/28 09:34:07;;;;;;;22.00;15.73;;;;;;;12.40;81.50;101380.88;4966749;28;20571;-71
2022/03/28 09:36:41;;;;;;;20.63;14.87;;;;;;;12.56;81.69;101371.81;4963743;28;20204;-71
2022/03/28 09:39:10;;;;;;;23.37;14.73;;;;;;;12.68;79.87;101374.16;4968420;28;20240;-71
2022/03/28 09:41:37;;;;;;;22.13;14.80;;;;;;;12.75;79.80;101374.88;4965482;28;20634;-71
2022/03/28 09:44:04;;;;;;;22.53;14.80;;;;;;;12.81;80.03;101371.25;4969507;28;20205;-72
2022/03/28 09:46:34;;;;;;;22.47;15.50;;;;;;;12.81;78.54;101366.03;4965333;28;20293;-71
2022/03/28 09:49:00;;;;;;;25.23;15.60;;;;;;;12.93;77.41;101364.84;4969558;28;20241;-72
2022/03/28 09:51:28;;;;;;;21.37;14.70;;;;;;;13.03;78.40;101356.75;4965359;28;20560;-71
2022/03/28 09:53:56;;;;;;;20.97;14.10;;;;;;;13.08;78.37;101348.78;4965555;28;20212;-71
2022/03/28 09:56:23;;;;;;;24.77;15.00;;;;;;;13.15;76.52;101352.09;4960758;28;20208;-72
2022/03/28 09:58:56;;;;;;;20.07;14.50;;;;;;;13.10;76.66;101348.75;4961774;28;20804;-71
2022/03/28 10:01:24;;;;;;;23.17;14.90;;;;;;;13.18;77.62;101344.19;4966412;28;20254;-72
2022/03/28 10:03:53;;;;;;;21.53;14.87;;;;;;;13.27;76.61;101333.47;4966728;28;20225;-71
2022/03/28 10:06:21;;;;;;;19.63;13.73;;;;;;;13.39;76.97;101325.31;4963689;28;20685;-72
2022/03/28 10:08:48;;;;;;;20.13;13.60;;;;;;;13.42;75.53;101333.09;4964677;28;20235;-71
2022/03/28 10:11:17;;;;;;;20.10;14.50;;;;;;;13.59;74.56;101329.16;4965716;28;20577;-71
2022/03/28 10:13:44;;;;;;;23.33;14.60;;;;;;;13.72;73.13;101325.31;4966347;28;20284;-71
2022/03/28 10:16:11;;;;;;;19.13;14.27;;;;;;;13.68;73.74;101330.66;4965583;28;20683;-72
2022/03/28 10:18:40;;;;;;;21.23;14.10;;;;;;;13.70;73.61;101316.63;4964232;28;20225;-71
2022/03/28 10:21:08;;;;;;;21.80;14.80;;;;;;;13.85;74.37;101311.84;4963909;28;20204;-72
2022/03/28 10:23:41;;;;;;;18.80;13.67;;;;;;;13.85;73.00;101317.09;4964728;28;20621;-72
2022/03/28 10:26:09;;;;;;;22.23;14.27;;;;;;;13.94;72.79;101314.19;4964673;28;20246;-71
2022/03/28 10:28:37;;;;;;;22.33;14.43;;;;;;;13.99;71.65;101310.53;4964365;28;20225;-71
2022/03/28 10:31:14;;;;;;;20.10;14.70;;;;;;;14.03;71.24;101308.66;4964596;28;20198;-72
2022/03/28 10:33:49;;;;;;;18.27;13.57;;;;;;;14.10;71.85;101297.09;4963286;28;20785;-71
2022/03/28 10:36:23;;;;;;;18.77;14.17;;;;;;;14.17;70.71;101293.38;4967063;28;20196;-72
2022/03/28 10:38:51;;;;;;;19.80;13.20;;;;;;;14.32;72.67;101288.59;4967945;28;20781;-72
2022/03/28 10:41:19;;;;;;;17.43;13.10;;;;;;;14.34;70.39;101284.16;4967935;28;20630;-71
2022/03/28 10:43:47;;;;;;;20.20;13.37;;;;;;;14.50;70.06;101281.91;4966025;28;20219;-71
2022/03/28 10:46:15;;;;;;;19.63;13.30;;;;;;;14.41;68.17;101283.03;4964037;28;20222;-72
2022/03/28 10:48:44;;;;;;;18.47;13.10;;;;;;;14.51;67.43;101278.34;4964737;28;20222;-72
2022/03/28 10:51:13;;;;;;;19.60;12.83;;;;;;;14.62;64.86;101286.78;4966456;28;20217;-72
2022/03/28 10:53:43;;;;;;;15.83;11.53;;;;;;;14.71;63.07;101283.00;4965058;28;20204;-71
2022/03/28 10:56:15;;;;;;;17.60;11.13;;;;;;;14.77;61.98;101281.03;4966708;28;20199;-71
2022/03/28 10:58:43;;;;;;;16.47;12.37;;;;;;;14.94;63.01;101274.34;4968207;28;20228;-72
2022/03/28 11:01:28;;;;;;;17.83;12.00;;;;;;;14.95;62.45;101266.44;4966251;28;20205;-71
2022/03/28 11:04:00;;;;;;;17.63;12.30;;;;;;;15.01;61.57;101261.88;4965195;28;20197;-72
2022/03/28 11:07:00;;;;;;;16.63;12.40;;;;;;;15.12;60.76;101263.19;4964651;28;20227;-72
2022/03/28 11:09:43;;;;;;;17.20;11.77;;;;;;;15.09;59.61;101251.94;4904506;29;20247;-72
2022/03/28 11:12:12;;;;;;;16.73;10.87;;;;;;;15.18;59.94;101245.50;4908575;29;20215;-71
2022/03/28 11:14:41;;;;;;;15.50;10.70;;;;;;;15.18;60.12;101240.25;4935561;28;20217;-72
2022/03/28 11:17:17;;;;;;;15.50;10.50;;;;;;;15.35;60.67;101232.63;4967749;28;20208;-71